createdAt,value
2023-03-19T11:11:04.595Z,13.90
2023-03-19T13:49:31.539Z,14.50
2023-03-19T13:54:09.978Z,14.40
2023-03-19T15:56:29.518Z,14.20
2023-03-19T16:00:42.458Z,14.20
2023-03-19T20:48:45.737Z,13.00
2023-03-19T21:10:29.650Z,13.00
2023-03-19T21:14:39.310Z,13.00
2023-03-19T21:32:13.925Z,13.00
2023-03-19T21:36:17.280Z,13.00
2023-03-19T21:40:25.995Z,12.90
2023-03-19T21:48:57.396Z,12.90
2023-03-19T21:53:01.676Z,12.90
2023-03-19T21:57:05.881Z,12.90
2023-03-19T22:01:19.077Z,12.80
2023-03-19T22:14:23.216Z,12.80
2023-03-19T22:22:51.689Z,12.70
2023-03-19T22:26:57.590Z,12.70
2023-03-19T22:31:01.898Z,12.60
2023-03-19T22:35:05.219Z,12.60
2023-03-19T22:39:08.888Z,12.60
2023-03-19T22:43:31.816Z,12.70
2023-03-19T22:47:36.532Z,12.60
2023-03-19T22:51:39.398Z,12.60
2023-03-19T22:55:42.443Z,12.60
2023-03-19T22:59:47.580Z,12.60
2023-03-19T23:03:51.077Z,12.60
2023-03-19T23:07:55.412Z,12.60
2023-03-19T23:11:59.743Z,12.60
2023-03-19T23:16:03.177Z,12.60
2023-03-19T23:20:17.603Z,12.50
2023-03-19T23:24:21.138Z,12.50
2023-03-19T23:28:26.458Z,12.50
2023-03-19T23:32:29.210Z,12.40
2023-03-19T23:36:33.140Z,12.50
2023-03-19T23:40:37.009Z,12.50
2023-03-19T23:44:41.146Z,12.50
2023-03-19T23:48:44.833Z,12.50
2023-03-19T23:52:51.592Z,12.60
2023-03-19T23:56:55.231Z,12.60
